Time;durP1;ratioP1;P1;durP2;ratioP2;P2;SDS_P1;SDS_P2;PMS_P1;PMS_P2;Temp;Humidity;BMP_temperature;BMP_pressure;BME280_temperature;BME280_humidity;BME280_pressure;Samples;Min_cycle;Max_cycle;Signal;HPM_P1;HPM_P2
2021/07/03 00:02:20;;;;;;;19.15;12.30;;;15.80;84.70;;;;;;5092276;28;20214;-83
2021/07/03 00:04:45;;;;;;;15.60;10.85;;;15.80;84.90;;;;;;5092441;28;20167;-83
2021/07/03 00:07:11;;;;;;;17.45;11.70;;;15.80;84.90;;;;;;5076447;28;20225;-83
2021/07/03 00:09:37;;;;;;;17.92;11.45;;;15.70;85.00;;;;;;5076694;28;20191;-83
2021/07/03 00:12:06;;;;;;;17.20;11.10;;;15.70;85.10;;;;;;5075120;28;20186;-83
2021/07/03 00:14:34;;;;;;;21.17;13.57;;;15.70;84.90;;;;;;5076371;28;20601;-83
2021/07/03 00:17:00;;;;;;;16.05;11.48;;;15.70;84.80;;;;;;5075127;28;20547;-83
2021/07/03 00:19:26;;;;;;;18.42;10.98;;;15.70;84.70;;;;;;5066946;23;20652;-88
2021/07/03 00:21:51;;;;;;;16.50;11.45;;;15.60;84.60;;;;;;4953620;28;20242;-88
2021/07/03 00:24:17;;;;;;;15.70;12.02;;;15.50;84.70;;;;;;4969690;28;20270;-87
2021/07/03 00:26:43;;;;;;;17.45;12.57;;;15.50;85.20;;;;;;4969628;28;20229;-87
2021/07/03 00:29:09;;;;;;;17.20;12.32;;;15.40;85.70;;;;;;4954707;28;20192;-87
2021/07/03 00:31:35;;;;;;;27.02;14.57;;;15.30;86.00;;;;;;4953462;29;20548;-87
2021/07/03 00:34:00;;;;;;;22.52;13.93;;;15.20;87.30;;;;;;4953762;29;20528;-87
2021/07/03 00:36:26;;;;;;;23.10;15.45;;;15.20;87.40;;;;;;4952580;28;20180;-86
2021/07/03 00:38:52;;;;;;;23.42;14.43;;;15.20;87.50;;;;;;4953287;29;20302;-87
2021/07/03 00:41:17;;;;;;;16.55;13.93;;;15.20;87.30;;;;;;4953299;28;20204;-86
2021/07/03 00:43:43;;;;;;;19.30;14.57;;;15.10;87.60;;;;;;4953306;29;20183;-87
2021/07/03 00:46:09;;;;;;;17.90;14.38;;;15.10;87.20;;;;;;4954108;28;20579;-88
2021/07/03 00:48:34;;;;;;;18.83;14.63;;;15.10;87.60;;;;;;4954072;28;20196;-87
2021/07/03 00:51:00;;;;;;;18.08;14.05;;;15.00;87.70;;;;;;4953269;28;20179;-87
2021/07/03 00:53:26;;;;;;;23.75;14.57;;;15.10;87.40;;;;;;4953181;29;20187;-87
2021/07/03 00:55:53;;;;;;;17.25;13.65;;;15.00;87.70;;;;;;4953516;29;20238;-87
2021/07/03 00:58:19;;;;;;;21.17;15.27;;;15.10;87.60;;;;;;4953097;28;20199;-88
2021/07/03 01:00:45;;;;;;;20.23;14.67;;;15.00;87.90;;;;;;4954200;28;20249;-87
2021/07/03 01:03:11;;;;;;;19.03;14.17;;;15.00;87.60;;;;;;4953142;28;20179;-87
2021/07/03 01:05:36;;;;;;;19.48;13.50;;;15.00;88.00;;;;;;4954141;28;20236;-88
2021/07/03 01:08:02;;;;;;;20.65;13.30;;;15.00;87.70;;;;;;4952899;29;20712;-88
2021/07/03 01:10:29;;;;;;;16.35;12.73;;;15.00;87.60;;;;;;4952872;28;20720;-88
2021/07/03 01:12:56;;;;;;;25.00;11.32;;;14.90;87.30;;;;;;4954121;28;20548;-87
2021/07/03 01:15:23;;;;;;;16.48;10.40;;;14.90;87.20;;;;;;4952835;28;20670;-87
2021/07/03 01:17:48;;;;;;;11.27;9.55;;;14.90;86.80;;;;;;4952763;28;20253;-87
2021/07/03 01:20:16;;;;;;;13.93;9.68;;;15.00;86.50;;;;;;4968694;28;20248;-88
2021/07/03 01:22:44;;;;;;;15.68;9.52;;;14.90;86.00;;;;;;4969891;28;20198;-88
2021/07/03 01:25:11;;;;;;;16.52;10.55;;;14.90;85.40;;;;;;4954240;28;20176;-88
2021/07/03 01:27:38;;;;;;;12.93;10.63;;;14.90;85.30;;;;;;4952627;28;20266;-88
2021/07/03 01:30:07;;;;;;;15.27;10.48;;;14.80;85.10;;;;;;4952592;29;20286;-88
2021/07/03 01:32:33;;;;;;;15.30;10.77;;;14.80;85.00;;;;;;4952895;28;20548;-87
2021/07/03 01:34:59;;;;;;;13.90;10.68;;;14.80;85.00;;;;;;4952883;29;20183;-88
2021/07/03 01:37:24;;;;;;;12.38;10.18;;;14.80;85.00;;;;;;4952527;28;20270;-88
2021/07/03 01:39:51;;;;;;;18.05;10.70;;;14.70;85.30;;;;;;4952370;28;20199;-88
2021/07/03 01:42:17;;;;;;;14.82;11.45;;;14.70;85.30;;;;;;4952481;28;20266;-88
2021/07/03 01:44:45;;;;;;;15.88;12.30;;;14.60;85.90;;;;;;4952470;28;20183;-87
2021/07/03 01:47:10;;;;;;;20.70;11.65;;;14.60;86.60;;;;;;4952361;28;20224;-88
2021/07/03 01:49:42;;;;;;;16.65;11.88;;;14.50;86.80;;;;;;4953380;28;20279;-88
2021/07/03 01:52:08;;;;;;;17.52;11.38;;;14.50;87.00;;;;;;4952413;29;20163;-88
2021/07/03 01:54:35;;;;;;;17.98;9.90;;;14.50;87.20;;;;;;4952832;28;20639;-88
2021/07/03 01:57:01;;;;;;;12.48;10.13;;;14.50;86.70;;;;;;4968336;28;20180;-88
2021/07/03 01:59:29;;;;;;;16.15;9.85;;;14.50;86.30;;;;;;4952243;29;20210;-88
2021/07/03 02:01:56;;;;;;;16.02;9.77;;;14.60;86.00;;;;;;4953338;28;20226;-88
2021/07/03 02:04:22;;;;;;;19.67;10.45;;;14.60;85.90;;;;;;4968170;28;20185;-88
2021/07/03 02:06:48;;;;;;;23.05;12.40;;;14.50;85.70;;;;;;4953269;28;20179;-87
2021/07/03 02:09:14;;;;;;;17.48;12.38;;;14.60;85.80;;;;;;4952520;28;20619;-87
2021/07/03 02:11:41;;;;;;;19.33;14.82;;;14.60;85.80;;;;;;4953240;28;20636;-87
2021/07/03 02:14:06;;;;;;;19.52;13.50;;;14.50;86.50;;;;;;4952024;28;20204;-87
2021/07/03 02:16:32;;;;;;;21.55;12.52;;;14.50;87.20;;;;;;4951973;28;20275;-87
2021/07/03 02:18:58;;;;;;;17.97;12.07;;;14.50;87.10;;;;;;4951974;28;20219;-88
2021/07/03 02:21:24;;;;;;;14.73;13.07;;;14.40;87.30;;;;;;4951897;29;20253;-87
2021/07/03 02:23:49;;;;;;;22.50;14.10;;;14.40;87.70;;;;;;4951884;28;20206;-87
2021/07/03 02:26:15;;;;;;;17.47;13.20;;;14.30;88.00;;;;;;4952437;28;20639;-87
2021/07/03 02:28:41;;;;;;;22.43;13.17;;;14.30;87.90;;;;;;4952058;29;20268;-88
2021/07/03 02:31:06;;;;;;;14.47;12.73;;;14.20;88.40;;;;;;4951746;28;20191;-88
2021/07/03 02:33:32;;;;;;;23.67;13.87;;;14.30;88.40;;;;;;4951710;29;20198;-88
2021/07/03 02:35:58;;;;;;;15.87;13.23;;;14.20;88.40;;;;;;4951708;28;20244;-87
2021/07/03 02:38:24;;;;;;;16.97;12.97;;;14.20;88.40;;;;;;4951537;28;20247;-88
2021/07/03 02:40:49;;;;;;;16.27;11.67;;;14.20;88.30;;;;;;4951613;29;20675;-87
2021/07/03 02:43:15;;;;;;;15.57;12.13;;;14.20;88.10;;;;;;4952833;28;20180;-87
2021/07/03 02:45:41;;;;;;;17.57;12.30;;;14.20;87.70;;;;;;4952747;28;20696;-87
2021/07/03 02:48:07;;;;;;;16.43;12.10;;;14.20;87.60;;;;;;4952963;28;20179;-88
2021/07/03 02:50:32;;;;;;;23.20;12.67;;;14.20;87.70;;;;;;4951552;28;20183;-87
2021/07/03 02:52:58;;;;;;;15.60;13.43;;;14.10;87.80;;;;;;4951502;29;20188;-87
2021/07/03 02:55:23;;;;;;;19.23;16.37;;;14.10;88.00;;;;;;4952645;28;20176;-88
2021/07/03 02:57:49;;;;;;;22.93;15.67;;;14.10;88.00;;;;;;4951427;29;20179;-87
2021/07/03 03:00:17;;;;;;;14.40;12.77;;;14.00;88.20;;;;;;4950712;28;20306;-87
2021/07/03 03:02:42;;;;;;;16.70;13.17;;;14.00;88.10;;;;;;4951302;28;20274;-87
2021/07/03 03:05:10;;;;;;;15.63;13.50;;;14.00;87.90;;;;;;4951333;28;20215;-88
2021/07/03 03:07:37;;;;;;;16.23;14.53;;;14.10;87.60;;;;;;4951572;28;20187;-87
2021/07/03 03:10:05;;;;;;;16.97;14.50;;;14.00;87.40;;;;;;4951164;28;20294;-88
2021/07/03 03:12:31;;;;;;;16.70;15.03;;;14.00;87.20;;;;;;4951171;28;20270;-87
2021/07/03 03:14:57;;;;;;;16.80;14.83;;;14.00;87.10;;;;;;4951177;29;20187;-87
2021/07/03 03:17:22;;;;;;;20.90;14.13;;;14.00;87.90;;;;;;4951298;29;20179;-88
2021/07/03 03:19:48;;;;;;;17.50;15.63;;;14.00;87.80;;;;;;4952744;28;20223;-87
2021/07/03 03:22:14;;;;;;;17.17;15.40;;;14.00;87.60;;;;;;4951014;29;20207;-87
2021/07/03 03:24:39;;;;;;;16.70;14.00;;;14.10;87.50;;;;;;4951159;28;20199;-88
2021/07/03 03:27:05;;;;;;;18.73;13.43;;;14.10;87.40;;;;;;4951124;28;20305;-87
2021/07/03 03:29:30;;;;;;;19.57;14.40;;;14.10;87.40;;;;;;4951247;28;20543;-87
2021/07/03 03:31:56;;;;;;;18.13;14.80;;;14.10;88.10;;;;;;4950952;28;20184;-87
2021/07/03 03:34:22;;;;;;;26.70;18.50;;;14.10;88.40;;;;;;4951006;29;20725;-87
2021/07/03 03:36:47;;;;;;;26.60;20.67;;;14.10;88.90;;;;;;4952162;28;20184;-87
2021/07/03 03:39:13;;;;;;;25.93;18.20;;;14.30;90.50;;;;;;4951142;28;20300;-87
2021/07/03 03:41:39;;;;;;;24.00;18.83;;;14.30;90.60;;;;;;4950799;28;20203;-87
2021/07/03 03:44:04;;;;;;;25.27;18.80;;;14.40;90.40;;;;;;4951745;29;20172;-87
2021/07/03 03:46:30;;;;;;;26.13;20.77;;;14.30;90.20;;;;;;4950871;29;20175;-87
2021/07/03 03:48:56;;;;;;;26.77;21.20;;;14.40;90.70;;;;;;4951083;28;20203;-87
2021/07/03 03:51:21;;;;;;;24.57;19.80;;;14.50;90.80;;;;;;4951105;28;20183;-87
2021/07/03 03:53:47;;;;;;;23.63;18.60;;;14.50;90.70;;;;;;4950835;29;20183;-88
2021/07/03 03:56:13;;;;;;;21.40;17.10;;;14.40;90.50;;;;;;4950802;28;20669;-88
2021/07/03 03:58:38;;;;;;;23.30;17.63;;;14.50;90.50;;;;;;4950602;29;20253;-88
2021/07/03 04:01:04;;;;;;;29.43;19.73;;;14.50;90.40;;;;;;4952076;28;20253;-88
2021/07/03 04:03:30;;;;;;;25.37;19.70;;;14.60;90.60;;;;;;4950634;28;20278;-87
2021/07/03 04:05:55;;;;;;;29.03;20.53;;;14.60;90.80;;;;;;4950644;28;20670;-88
2021/07/03 04:08:21;;;;;;;25.03;20.93;;;14.70;90.80;;;;;;4950523;29;20277;-88
2021/07/03 04:10:47;;;;;;;24.30;19.63;;;14.70;91.00;;;;;;4950594;28;20191;-87
2021/07/03 04:13:12;;;;;;;22.70;18.30;;;14.70;91.20;;;;;;4952927;29;20674;-88
2021/07/03 04:15:38;;;;;;;21.17;18.83;;;14.70;91.20;;;;;;4955568;28;20202;-87
2021/07/03 04:18:04;;;;;;;23.83;18.40;;;14.70;91.00;;;;;;4953668;29;20184;-88
2021/07/03 04:20:30;;;;;;;26.77;19.57;;;14.70;90.90;;;;;;4953937;28;20690;-87
2021/07/03 04:22:55;;;;;;;31.13;19.87;;;14.70;90.90;;;;;;4954823;28;20176;-88
2021/07/03 04:25:21;;;;;;;26.40;20.90;;;14.80;90.80;;;;;;4953782;28;20707;-88
2021/07/03 04:27:48;;;;;;;24.50;19.57;;;14.80;91.00;;;;;;4954186;28;20183;-88
2021/07/03 04:30:15;;;;;;;28.67;20.97;;;14.80;90.90;;;;;;4954972;28;20199;-87
2021/07/03 04:32:42;;;;;;;28.13;21.83;;;14.80;91.00;;;;;;4953489;28;20654;-87
2021/07/03 04:35:08;;;;;;;28.00;21.27;;;14.80;91.10;;;;;;4953508;28;20176;-88
2021/07/03 04:37:34;;;;;;;26.23;20.67;;;14.90;91.10;;;;;;4953327;28;20180;-87
2021/07/03 04:40:00;;;;;;;26.90;21.00;;;15.00;91.10;;;;;;4953643;29;20206;-88
2021/07/03 04:42:26;;;;;;;31.43;21.77;;;15.00;91.20;;;;;;4953874;28;20187;-88
2021/07/03 04:44:51;;;;;;;27.63;20.80;;;15.20;91.40;;;;;;4953512;28;20237;-88
2021/07/03 04:47:17;;;;;;;28.90;22.20;;;15.20;91.50;;;;;;4953618;28;20180;-88
2021/07/03 04:49:43;;;;;;;31.37;24.10;;;15.20;91.70;;;;;;4953426;28;20195;-87
2021/07/03 04:52:08;;;;;;;33.40;23.43;;;15.30;91.70;;;;;;4953764;28;20195;-87
2021/07/03 04:54:34;;;;;;;25.63;21.10;;;15.30;91.70;;;;;;4953438;28;20191;-88
2021/07/03 04:57:08;;;;;;;27.73;23.93;;;15.40;91.60;;;;;;4953682;29;20188;-88
2021/07/03 04:59:42;;;;;;;26.43;22.47;;;15.40;91.50;;;;;;4953182;29;20202;-88
2021/07/03 05:02:12;;;;;;;29.48;21.55;;;15.50;91.50;;;;;;4953909;29;20290;-87
2021/07/03 05:04:39;;;;;;;27.00;21.65;;;15.60;91.40;;;;;;4953099;28;20175;-88
2021/07/03 05:07:05;;;;;;;24.67;19.73;;;15.50;91.20;;;;;;4953070;28;20190;-87
2021/07/03 05:09:31;;;;;;;36.67;22.70;;;15.50;90.90;;;;;;4952978;29;20200;-87
2021/07/03 05:11:57;;;;;;;27.43;20.70;;;15.50;91.10;;;;;;4953027;28;20192;-87
2021/07/03 05:14:23;;;;;;;32.13;21.77;;;15.50;91.20;;;;;;4953681;28;20540;-87
2021/07/03 05:16:49;;;;;;;25.48;21.92;;;15.50;91.20;;;;;;4952942;28;20187;-87
2021/07/03 05:19:15;;;;;;;27.73;20.73;;;15.50;91.10;;;;;;4954059;28;20215;-88
2021/07/03 05:21:41;;;;;;;28.50;21.20;;;15.70;91.10;;;;;;4952678;28;20199;-88
2021/07/03 05:24:07;;;;;;;28.55;21.83;;;15.70;91.20;;;;;;4952423;28;20679;-88
2021/07/03 05:26:32;;;;;;;28.90;20.75;;;15.70;91.10;;;;;;4953047;28;20211;-88
2021/07/03 05:28:58;;;;;;;32.75;19.73;;;15.70;90.80;;;;;;4952636;28;20203;-88
2021/07/03 05:31:24;;;;;;;24.90;19.95;;;15.70;90.50;;;;;;4952656;29;20544;-88
2021/07/03 05:33:49;;;;;;;26.33;20.48;;;15.70;90.60;;;;;;4952565;28;20205;-88
2021/07/03 05:36:15;;;;;;;28.10;21.85;;;15.80;90.70;;;;;;4952592;29;20179;-88
2021/07/03 05:38:42;;;;;;;29.25;23.80;;;15.90;90.90;;;;;;4952447;28;20222;-88
2021/07/03 05:41:10;;;;;;;27.02;22.13;;;16.00;90.90;;;;;;4952447;28;20261;-88
2021/07/03 05:43:36;;;;;;;31.05;21.30;;;16.20;90.90;;;;;;4952724;29;20183;-88
2021/07/03 05:46:03;;;;;;;27.42;20.67;;;16.20;90.50;;;;;;4952416;28;20179;-88
2021/07/03 05:48:29;;;;;;;29.00;19.85;;;16.20;90.10;;;;;;4953567;28;20275;-88
2021/07/03 05:50:54;;;;;;;23.10;18.88;;;16.30;90.10;;;;;;4952424;29;20218;-88
2021/07/03 05:53:20;;;;;;;19.83;17.02;;;16.30;90.10;;;;;;4952902;28;20183;-88
2021/07/03 05:55:46;;;;;;;21.42;18.13;;;16.30;89.80;;;;;;4953524;28;20710;-87
2021/07/03 05:58:12;;;;;;;33.70;19.65;;;16.30;89.30;;;;;;4952206;29;20180;-88
2021/07/03 06:00:37;;;;;;;25.27;19.45;;;16.30;89.60;;;;;;4952108;29;20257;-87
2021/07/03 06:03:03;;;;;;;26.60;19.38;;;16.30;89.20;;;;;;4953389;28;20172;-87
2021/07/03 06:05:29;;;;;;;22.05;17.45;;;16.40;89.30;;;;;;4952181;29;20188;-87
2021/07/03 06:07:54;;;;;;;25.38;17.38;;;16.30;89.20;;;;;;4952649;29;20179;-87
2021/07/03 06:10:20;;;;;;;28.33;16.02;;;16.40;89.30;;;;;;4953217;28;20202;-88
2021/07/03 06:12:45;;;;;;;18.33;14.90;;;16.50;88.70;;;;;;4952067;28;20662;-87
2021/07/03 06:15:12;;;;;;;20.63;12.25;;;16.60;88.70;;;;;;4952024;28;20188;-87
2021/07/03 06:17:38;;;;;;;16.27;11.02;;;16.60;87.20;;;;;;4951964;28;20183;-87
2021/07/03 06:20:06;;;;;;;16.67;10.38;;;16.60;86.80;;;;;;4951867;28;20226;-88
2021/07/03 06:22:32;;;;;;;17.10;9.68;;;16.60;86.20;;;;;;4952228;28;20673;-88
2021/07/03 06:24:58;;;;;;;20.95;9.80;;;16.70;86.60;;;;;;4967945;28;20186;-88
2021/07/03 06:27:23;;;;;;;13.20;9.25;;;16.80;86.50;;;;;;4968005;28;20172;-88
2021/07/03 06:29:49;;;;;;;13.50;8.85;;;17.00;86.50;;;;;;4967982;28;20249;-87
2021/07/03 06:32:15;;;;;;;8.63;6.20;;;17.00;86.00;;;;;;4953290;28;20258;-87
2021/07/03 06:34:41;;;;;;;10.02;5.93;;;17.20;85.40;;;;;;4952345;28;20194;-87
2021/07/03 06:37:06;;;;;;;8.45;5.53;;;17.20;84.30;;;;;;4967699;28;20175;-87
2021/07/03 06:39:32;;;;;;;7.80;5.57;;;17.20;84.30;;;;;;4952766;28;20613;-87
2021/07/03 06:41:58;;;;;;;10.02;6.10;;;17.50;83.90;;;;;;4951620;28;20210;-87
2021/07/03 06:44:24;;;;;;;8.60;5.60;;;17.70;83.50;;;;;;4967767;28;20626;-87
2021/07/03 06:46:50;;;;;;;10.07;5.47;;;17.70;83.30;;;;;;4967728;28;20182;-87
2021/07/03 06:49:16;;;;;;;5.70;4.90;;;17.40;81.30;;;;;;4967839;28;20200;-87
2021/07/03 06:51:42;;;;;;;10.10;5.25;;;17.30;82.10;;;;;;4967536;28;20597;-87
2021/07/03 06:54:08;;;;;;;5.43;4.75;;;17.50;82.70;;;;;;4967601;28;20175;-88
2021/07/03 06:56:34;;;;;;;8.23;5.28;;;17.70;82.20;;;;;;4952598;28;20176;-87
2021/07/03 06:59:00;;;;;;;6.45;5.22;;;17.70;81.40;;;;;;4952792;28;20252;-87
2021/07/03 07:01:26;;;;;;;5.43;4.93;;;17.70;80.40;;;;;;4952556;28;20229;-87
2021/07/03 07:03:51;;;;;;;5.43;4.55;;;17.70;81.00;;;;;;4967432;28;20659;-87
2021/07/03 07:06:17;;;;;;;7.22;5.05;;;17.90;80.90;;;;;;4967412;28;20643;-87
2021/07/03 07:08:43;;;;;;;8.63;4.97;;;18.10;80.60;;;;;;4951177;28;20686;-87
2021/07/03 07:11:08;;;;;;;5.20;3.63;;;18.20;79.80;;;;;;4967229;28;20268;-87
2021/07/03 07:13:34;;;;;;;5.55;4.40;;;18.00;79.70;;;;;;4951246;28;20191;-87
2021/07/03 07:15:59;;;;;;;5.47;4.55;;;18.10;79.70;;;;;;4951196;28;20186;-87
2021/07/03 07:18:25;;;;;;;5.07;4.03;;;18.20;79.70;;;;;;4967089;28;20254;-87
2021/07/03 07:20:51;;;;;;;6.82;3.55;;;18.30;77.70;;;;;;4967125;28;20211;-87
2021/07/03 07:23:16;;;;;;;6.32;4.30;;;18.30;77.50;;;;;;4967236;28;20176;-87
2021/07/03 07:25:42;;;;;;;7.57;4.53;;;18.30;76.50;;;;;;4951122;28;20211;-87
2021/07/03 07:28:08;;;;;;;4.18;3.65;;;18.30;76.80;;;;;;4967057;28;20181;-87
2021/07/03 07:30:34;;;;;;;6.57;3.28;;;18.40;75.70;;;;;;4952218;28;20218;-87
2021/07/03 07:33:00;;;;;;;5.95;3.70;;;18.30;76.30;;;;;;4967096;28;20275;-87
2021/07/03 07:35:27;;;;;;;4.05;3.50;;;18.30;76.20;;;;;;4967051;28;20274;-87
2021/07/03 07:37:53;;;;;;;5.82;3.95;;;18.30;75.80;;;;;;4966910;28;20180;-87
2021/07/03 07:40:19;;;;;;;7.07;3.85;;;18.20;77.00;;;;;;4951975;28;20191;-87
2021/07/03 07:42:46;;;;;;;6.18;4.10;;;18.20;76.90;;;;;;4966933;28;20203;-86
2021/07/03 07:45:12;;;;;;;6.20;4.10;;;18.20;76.90;;;;;;4952062;28;20203;-87
2021/07/03 07:47:37;;;;;;;7.60;3.80;;;18.30;76.20;;;;;;4969892;28;20234;-87
2021/07/03 07:50:05;;;;;;;9.80;4.40;;;18.30;76.70;;;;;;4955361;28;20192;-87
2021/07/03 07:52:31;;;;;;;8.95;4.25;;;18.40;76.90;;;;;;4955600;28;20224;-87
2021/07/03 07:54:57;;;;;;;6.18;4.22;;;18.50;76.40;;;;;;4970354;28;20662;-87
2021/07/03 07:57:23;;;;;;;3.95;3.63;;;18.30;77.20;;;;;;4970072;28;20184;-87
2021/07/03 07:59:49;;;;;;;7.47;3.90;;;18.50;76.90;;;;;;4953920;28;20192;-87
2021/07/03 08:02:14;;;;;;;7.53;3.90;;;18.50;76.10;;;;;;4970015;28;20628;-87
2021/07/03 08:04:40;;;;;;;6.53;3.97;;;18.50;76.10;;;;;;4969975;28;20182;-87
2021/07/03 08:07:06;;;;;;;4.57;3.50;;;18.60;75.90;;;;;;4969946;28;20183;-87
2021/07/03 08:09:31;;;;;;;4.80;3.55;;;18.60;75.00;;;;;;4969889;28;20641;-87
2021/07/03 08:11:57;;;;;;;4.32;3.75;;;18.70;74.00;;;;;;4955007;28;20597;-87
2021/07/03 08:14:23;;;;;;;4.45;3.90;;;18.60;73.90;;;;;;4953838;28;20266;-87
2021/07/03 08:16:49;;;;;;;4.38;3.75;;;18.50;74.00;;;;;;4953592;28;20179;-87
2021/07/03 08:19:15;;;;;;;7.47;3.42;;;18.50;74.80;;;;;;4954850;28;20286;-87
2021/07/03 08:21:41;;;;;;;6.30;3.92;;;18.50;75.60;;;;;;4954785;28;20191;-87
2021/07/03 08:24:07;;;;;;;3.95;3.55;;;18.50;75.80;;;;;;4969775;28;20662;-87
2021/07/03 08:26:32;;;;;;;5.20;4.13;;;18.50;76.00;;;;;;4954873;28;20167;-87
2021/07/03 08:28:58;;;;;;;7.20;3.60;;;18.50;74.90;;;;;;4954784;28;20612;-87
2021/07/03 08:31:24;;;;;;;5.55;3.75;;;18.50;76.20;;;;;;4953490;28;20179;-86
2021/07/03 08:33:50;;;;;;;6.05;3.92;;;18.70;75.50;;;;;;4954729;28;20183;-87
2021/07/03 08:36:15;;;;;;;4.43;3.78;;;18.80;75.50;;;;;;4954645;28;20289;-87
2021/07/03 08:38:41;;;;;;;6.85;4.22;;;18.70;75.00;;;;;;4953394;28;20211;-87
2021/07/03 08:41:07;;;;;;;6.15;4.22;;;18.80;75.10;;;;;;4954624;28;20206;-86
2021/07/03 08:43:33;;;;;;;5.38;3.63;;;18.70;75.50;;;;;;4953378;28;20183;-86
2021/07/03 08:45:59;;;;;;;4.47;3.83;;;18.80;75.80;;;;;;4969552;28;20187;-86
2021/07/03 08:48:25;;;;;;;6.15;4.00;;;18.80;74.80;;;;;;4969247;28;20195;-86
2021/07/03 08:50:58;;;;;;;3.80;3.40;;;18.90;75.00;;;;;;4954466;28;20175;-86
2021/07/03 08:53:25;;;;;;;5.28;3.47;;;19.10;74.20;;;;;;4969250;28;20184;-86
2021/07/03 08:55:50;;;;;;;6.60;3.72;;;19.00;71.40;;;;;;4953424;28;20260;-86
2021/07/03 08:58:16;;;;;;;7.25;4.20;;;18.80;74.30;;;;;;4953790;28;20667;-87
2021/07/03 09:00:43;;;;;;;5.75;3.50;;;18.80;73.10;;;;;;4969096;28;20582;-86
2021/07/03 09:03:14;;;;;;;5.20;3.35;;;18.80;71.40;;;;;;4969128;28;20176;-86
2021/07/03 09:05:42;;;;;;;4.07;3.40;;;18.80;73.30;;;;;;4954267;28;20160;-86
2021/07/03 09:08:10;;;;;;;4.00;3.10;;;18.90;72.80;;;;;;4954075;28;20182;-86
2021/07/03 09:10:39;;;;;;;6.15;3.28;;;18.80;72.50;;;;;;4954135;28;20172;-86
2021/07/03 09:13:05;;;;;;;3.38;2.92;;;18.70;71.30;;;;;;4952881;28;20176;-86
2021/07/03 09:15:33;;;;;;;4.40;3.35;;;19.10;71.20;;;;;;4968889;28;20179;-86
2021/07/03 09:18:03;;;;;;;5.10;3.55;;;19.50;71.50;;;;;;4954035;28;20236;-86
2021/07/03 09:20:33;;;;;;;4.32;2.90;;;19.70;70.80;;;;;;4968813;28;20211;-86
2021/07/03 09:23:14;;;;;;;5.13;3.03;;;19.90;68.80;;;;;;4968856;28;20298;-86
2021/07/03 09:25:45;;;;;;;5.40;3.30;;;19.90;68.30;;;;;;4968857;28;20203;-86
2021/07/03 09:28:14;;;;;;;3.97;2.90;;;19.70;68.70;;;;;;4952593;28;20198;-87
2021/07/03 09:30:41;;;;;;;4.05;3.30;;;19.70;69.90;;;;;;4968661;28;20223;-87
2021/07/03 09:33:07;;;;;;;4.40;3.78;;;19.30;69.00;;;;;;4952692;28;20233;-86
2021/07/03 09:35:33;;;;;;;3.78;3.22;;;19.30;69.70;;;;;;4953803;28;20256;-87
2021/07/03 09:38:07;;;;;;;4.55;3.60;;;19.40;70.30;;;;;;4952525;28;20179;-87
2021/07/03 09:40:34;;;;;;;7.13;3.78;;;19.60;70.40;;;;;;4953852;28;20221;-86
2021/07/03 09:43:11;;;;;;;4.07;3.60;;;19.70;71.10;;;;;;4968587;28;20175;-87
2021/07/03 09:45:50;;;;;;;7.88;3.55;;;20.00;68.00;;;;;;4952446;28;20175;-86
2021/07/03 09:48:15;;;;;;;5.22;3.15;;;20.00;70.60;;;;;;4953560;28;20217;-87
2021/07/03 09:50:41;;;;;;;4.50;3.05;;;20.30;66.30;;;;;;4968868;28;20655;-87
2021/07/03 09:53:08;;;;;;;6.47;3.63;;;20.50;68.90;;;;;;4953612;28;20211;-87
2021/07/03 09:55:38;;;;;;;4.35;2.90;;;21.00;67.10;;;;;;4968414;28;20187;-87
2021/07/03 09:58:04;;;;;;;6.45;3.55;;;21.10;65.70;;;;;;4953424;28;20172;-86
2021/07/03 10:00:30;;;;;;;3.65;3.20;;;20.90;64.80;;;;;;4953359;28;20248;-86
2021/07/03 10:02:57;;;;;;;6.32;3.88;;;20.20;68.00;;;;;;4952116;28;20183;-86
2021/07/03 10:05:23;;;;;;;6.78;3.22;;;20.20;68.00;;;;;;4968192;28;20214;-88
2021/07/03 10:08:21;;;;;;;5.75;3.15;;;20.50;67.50;;;;;;4969049;28;20207;-87
2021/07/03 10:10:53;;;;;;;5.43;3.40;;;20.70;67.50;;;;;;4975305;28;20187;-87
2021/07/03 10:13:21;;;;;;;4.78;3.60;;;20.30;66.60;;;;;;4953298;29;20167;-87
2021/07/03 10:15:47;;;;;;;3.95;3.55;;;20.10;68.00;;;;;;4968308;28;20183;-87
2021/07/03 10:18:23;;;;;;;5.63;3.60;;;20.30;66.90;;;;;;4967851;28;20656;-88
2021/07/03 10:20:52;;;;;;;3.55;2.78;;;20.50;66.80;;;;;;4967922;28;20268;-87
2021/07/03 10:23:18;;;;;;;3.53;2.88;;;20.90;65.00;;;;;;4967911;28;20187;-87
2021/07/03 10:25:47;;;;;;;2.80;2.55;;;21.00;64.50;;;;;;4967904;28;20180;-87
2021/07/03 10:28:15;;;;;;;4.95;2.75;;;21.10;64.80;;;;;;4968112;28;20172;-87
2021/07/03 10:30:43;;;;;;;3.92;2.95;;;21.30;63.70;;;;;;4968052;28;20277;-87
2021/07/03 10:33:15;;;;;;;5.93;2.88;;;21.60;64.50;;;;;;4951814;28;20183;-87
2021/07/03 10:35:50;;;;;;;4.82;2.90;;;21.70;62.80;;;;;;4967743;28;20214;-87
2021/07/03 10:38:25;;;;;;;3.22;2.58;;;21.90;64.40;;;;;;4952942;28;20171;-88
2021/07/03 10:40:53;;;;;;;2.92;2.40;;;22.20;62.80;;;;;;4951673;28;20210;-87
2021/07/03 10:43:21;;;;;;;3.92;2.83;;;22.40;61.60;;;;;;4967702;28;20635;-87
2021/07/03 10:45:48;;;;;;;6.38;3.38;;;22.10;61.80;;;;;;4967596;28;20205;-87
2021/07/03 10:48:16;;;;;;;6.03;3.03;;;22.10;61.50;;;;;;4952776;28;20309;-87
2021/07/03 10:50:42;;;;;;;4.25;2.72;;;21.90;61.00;;;;;;4967600;28;20191;-87
2021/07/03 10:53:19;;;;;;;3.55;2.60;;;22.00;63.20;;;;;;4967554;28;20528;-87
2021/07/03 10:55:45;;;;;;;3.30;2.60;;;22.20;61.70;;;;;;4952607;28;20194;-87
2021/07/03 10:58:19;;;;;;;2.80;2.20;;;22.40;62.70;;;;;;4952828;28;20207;-87
2021/07/03 11:00:48;;;;;;;4.45;2.65;;;22.70;59.20;;;;;;4952490;28;20199;-87
2021/07/03 11:03:15;;;;;;;4.97;2.42;;;22.30;61.80;;;;;;4952045;28;20658;-86
2021/07/03 11:05:41;;;;;;;4.97;2.65;;;22.60;61.00;;;;;;4967257;28;20540;-86
2021/07/03 11:08:12;;;;;;;3.95;2.30;;;22.90;60.50;;;;;;4952406;28;20225;-87
2021/07/03 11:10:41;;;;;;;3.50;2.38;;;23.10;58.40;;;;;;4951395;28;20172;-87
2021/07/03 11:13:21;;;;;;;3.00;2.55;;;23.20;57.80;;;;;;4967457;28;20187;-87
2021/07/03 11:15:47;;;;;;;3.28;2.47;;;23.30;58.40;;;;;;4967346;28;20171;-87
2021/07/03 11:18:13;;;;;;;2.88;2.10;;;23.50;57.90;;;;;;4967007;28;20721;-87
2021/07/03 11:20:42;;;;;;;2.95;2.15;;;23.20;58.90;;;;;;4952614;28;20562;-86
2021/07/03 11:23:09;;;;;;;2.70;2.28;;;23.50;57.50;;;;;;4970584;28;20206;-86
2021/07/03 11:25:43;;;;;;;3.97;2.47;;;23.30;59.00;;;;;;4970558;28;20330;-87
2021/07/03 11:28:20;;;;;;;3.33;2.25;;;22.90;57.40;;;;;;4970445;28;20182;-87
2021/07/03 11:30:48;;;;;;;2.80;2.50;;;22.30;59.40;;;;;;4954432;28;20646;-86
2021/07/03 11:33:14;;;;;;;5.97;2.50;;;22.70;62.10;;;;;;4955522;28;20179;-87
2021/07/03 11:35:45;;;;;;;2.75;2.47;;;23.10;57.50;;;;;;4970440;28;20179;-86
2021/07/03 11:38:12;;;;;;;2.13;1.90;;;23.40;58.10;;;;;;4954175;28;20210;-87
2021/07/03 11:40:40;;;;;;;4.43;2.20;;;23.40;57.40;;;;;;4955402;28;20207;-86
2021/07/03 11:43:06;;;;;;;5.88;2.75;;;23.30;58.70;;;;;;4954307;28;20214;-87
2021/07/03 11:45:38;;;;;;;4.38;2.60;;;23.50;56.80;;;;;;4970169;28;20739;-86
2021/07/03 11:48:04;;;;;;;3.60;2.47;;;23.80;57.40;;;;;;4970127;28;20179;-87
2021/07/03 11:50:32;;;;;;;3.50;2.30;;;24.10;55.10;;;;;;4954149;28;20263;-87
2021/07/03 11:53:00;;;;;;;2.75;2.35;;;24.00;56.00;;;;;;4970088;28;20643;-86
2021/07/03 11:55:47;;;;;;;4.00;2.28;;;24.20;57.10;;;;;;4970044;28;20231;-85
2021/07/03 11:58:21;;;;;;;9.18;2.28;;;23.80;56.90;;;;;;4955152;28;20211;-86
2021/07/03 12:00:52;;;;;;;3.58;2.28;;;23.90;56.90;;;;;;4955389;28;20215;-86
2021/07/03 12:03:23;;;;;;;3.53;2.40;;;24.20;55.00;;;;;;4969967;28;20259;-86
2021/07/03 12:05:50;;;;;;;3.85;2.22;;;24.50;55.80;;;;;;4955047;28;20632;-86
2021/07/03 12:08:17;;;;;;;4.65;2.50;;;24.10;55.40;;;;;;4969817;28;20615;-86
2021/07/03 12:10:47;;;;;;;5.95;2.20;;;23.80;56.30;;;;;;4955081;28;20180;-85
2021/07/03 12:13:26;;;;;;;5.75;2.28;;;24.10;56.50;;;;;;4953672;28;20279;-86
2021/07/03 12:15:58;;;;;;;2.47;1.88;;;24.10;56.80;;;;;;4955225;28;20713;-86
2021/07/03 12:18:25;;;;;;;2.20;2.00;;;23.90;57.10;;;;;;4953360;28;20717;-86
2021/07/03 12:21:03;;;;;;;2.67;1.92;;;24.20;55.00;;;;;;4954124;28;20199;-87
2021/07/03 12:23:28;;;;;;;2.88;1.67;;;24.30;56.80;;;;;;4955139;28;20189;-87
2021/07/03 12:25:54;;;;;;;2.80;1.70;;;24.80;54.00;;;;;;4970651;28;20186;-87
2021/07/03 12:28:19;;;;;;;2.75;1.60;;;24.40;54.60;;;;;;4969921;28;20203;-87
2021/07/03 12:30:46;;;;;;;5.22;1.83;;;24.60;54.80;;;;;;4955037;28;20264;-87
2021/07/03 12:33:13;;;;;;;5.97;1.77;;;24.30;54.80;;;;;;4952568;28;20187;-87
2021/07/03 12:35:41;;;;;;;2.75;1.75;;;24.10;55.80;;;;;;4954894;28;20176;-87